createdAt,value
2023-04-19T00:01:56.322Z,98427.00
2023-04-19T00:04:22.777Z,98417.00
2023-04-19T00:06:51.125Z,98416.00
2023-04-19T00:09:17.525Z,98413.00
2023-04-19T00:11:43.683Z,98401.00
2023-04-19T00:14:09.816Z,98402.00
2023-04-19T00:16:36.287Z,98395.00
2023-04-19T00:19:02.759Z,98405.00
2023-04-19T00:21:29.055Z,98408.00
2023-04-19T00:23:55.450Z,98398.00
2023-04-19T00:26:21.587Z,98395.00
2023-04-19T00:28:51.395Z,98389.00
2023-04-19T00:31:17.568Z,98388.00
2023-04-19T00:33:43.715Z,98409.00
2023-04-19T00:36:10.439Z,98393.00
2023-04-19T00:38:36.856Z,98390.00
2023-04-19T00:41:03.073Z,98397.00
2023-04-19T00:43:29.436Z,98384.00
2023-04-19T00:45:55.883Z,98394.00
2023-04-19T00:48:22.362Z,98392.00
2023-04-19T00:50:48.968Z,98398.00
2023-04-19T00:53:16.124Z,98390.00
2023-04-19T00:55:42.532Z,98393.00
2023-04-19T00:58:10.006Z,98392.00
2023-04-19T01:00:37.039Z,98380.00
2023-04-19T01:03:03.818Z,98390.00
2023-04-19T01:05:30.579Z,98387.00
2023-04-19T01:07:56.706Z,98381.00
2023-04-19T01:10:22.892Z,98385.00
2023-04-19T01:12:49.784Z,98377.00
2023-04-19T01:15:16.020Z,98380.00
2023-04-19T01:17:42.556Z,98357.00
2023-04-19T01:20:09.908Z,98370.00
2023-04-19T01:22:36.906Z,98373.00
2023-04-19T01:25:04.868Z,98368.00
2023-04-19T01:27:31.347Z,98361.00
2023-04-19T01:29:57.592Z,98363.00
2023-04-19T01:32:26.434Z,98363.00
2023-04-19T01:34:54.486Z,98362.00
2023-04-19T01:37:20.788Z,98348.00
2023-04-19T01:39:47.013Z,98335.00
2023-04-19T01:42:13.279Z,98342.00
2023-04-19T01:44:39.545Z,98337.00
2023-04-19T01:47:05.851Z,98339.00
2023-04-19T01:49:32.672Z,98345.00
2023-04-19T01:51:59.168Z,98342.00
2023-04-19T01:54:26.371Z,98344.00
2023-04-19T01:56:52.628Z,98346.00
2023-04-19T01:59:19.370Z,98338.00
2023-04-19T02:01:45.827Z,98344.00
2023-04-19T02:04:12.213Z,98354.00
2023-04-19T02:06:38.397Z,98335.00
2023-04-19T02:09:04.706Z,98339.00
2023-04-19T02:11:30.967Z,98351.00
2023-04-19T02:13:57.219Z,98339.00
2023-04-19T02:16:23.518Z,98342.00
2023-04-19T02:18:51.418Z,98341.00
2023-04-19T02:21:18.282Z,98336.00
2023-04-19T02:23:44.410Z,98342.00
2023-04-19T02:26:11.254Z,98329.00
2023-04-19T02:28:38.683Z,98339.00
2023-04-19T02:31:06.506Z,98327.00
2023-04-19T02:33:35.150Z,98348.00
2023-04-19T02:36:01.534Z,98330.00
2023-04-19T02:38:27.716Z,98346.00
2023-04-19T02:40:54.141Z,98337.00
2023-04-19T02:43:20.412Z,98332.00
2023-04-19T02:45:46.676Z,98335.00
2023-04-19T02:48:13.145Z,98352.00
2023-04-19T02:50:39.439Z,98336.00
2023-04-19T02:53:06.455Z,98354.00
2023-04-19T02:55:33.114Z,98333.00
2023-04-19T02:58:05.763Z,98342.00
2023-04-19T03:00:36.288Z,98342.00
2023-04-19T03:03:09.019Z,98328.00
2023-04-19T03:05:35.342Z,98333.00
2023-04-19T03:08:02.051Z,98330.00
2023-04-19T03:10:28.314Z,98333.00
2023-04-19T03:12:54.493Z,98335.00
2023-04-19T03:15:21.563Z,98331.00
2023-04-19T03:17:47.855Z,98325.00
2023-04-19T03:20:16.282Z,98335.00
2023-04-19T03:22:42.569Z,98332.00
2023-04-19T03:25:11.996Z,98339.00
2023-04-19T03:27:38.709Z,98332.00
2023-04-19T03:30:11.709Z,98329.00
2023-04-19T03:32:39.040Z,98321.00
2023-04-19T03:35:07.569Z,98319.00
2023-04-19T03:37:34.039Z,98325.00
2023-04-19T03:40:00.732Z,98313.00
2023-04-19T03:42:32.684Z,98305.00
2023-04-19T03:45:05.881Z,98308.00
2023-04-19T03:47:35.758Z,98301.00
2023-04-19T03:50:02.930Z,98316.00
2023-04-19T03:52:31.734Z,98312.00
2023-04-19T03:54:58.160Z,98297.00
2023-04-19T03:57:37.066Z,98309.00
2023-04-19T04:00:11.775Z,98306.00
2023-04-19T04:02:40.828Z,98311.00
2023-04-19T04:05:07.795Z,98308.00
2023-04-19T04:07:35.226Z,98300.00
2023-04-19T04:10:02.405Z,98305.00
2023-04-19T04:12:31.812Z,98302.00
2023-04-19T04:14:59.543Z,98316.00
2023-04-19T04:17:26.148Z,98317.00
2023-04-19T04:19:52.564Z,98309.00
2023-04-19T04:22:20.939Z,98304.00
2023-04-19T04:24:48.724Z,98315.00
2023-04-19T04:27:22.203Z,98307.00
2023-04-19T04:29:51.805Z,98309.00
2023-04-19T04:32:22.482Z,98301.00
2023-04-19T04:34:52.126Z,98300.00
2023-04-19T04:37:27.412Z,98304.00
2023-04-19T04:39:56.516Z,98301.00
2023-04-19T04:42:24.011Z,98291.00
2023-04-19T04:44:51.945Z,98303.00
2023-04-19T04:47:20.463Z,98307.00
2023-04-19T04:49:52.975Z,98312.00
2023-04-19T04:52:22.623Z,98299.00
2023-04-19T04:54:57.487Z,98317.00
2023-04-19T04:57:29.621Z,98306.00
2023-04-19T04:59:56.670Z,98302.00
2023-04-19T05:02:28.212Z,98310.00
2023-04-19T05:04:55.502Z,98323.00
2023-04-19T05:07:21.920Z,98316.00
2023-04-19T05:09:48.093Z,98316.00
2023-04-19T05:12:18.980Z,98323.00
2023-04-19T05:14:48.479Z,98305.00
2023-04-19T05:17:15.047Z,98294.00
2023-04-19T05:19:41.689Z,98308.00
2023-04-19T05:22:09.857Z,98310.00
2023-04-19T05:24:37.814Z,98307.00
2023-04-19T05:27:04.426Z,98307.00
2023-04-19T05:29:31.898Z,98307.00
2023-04-19T05:31:58.585Z,98312.00
2023-04-19T05:34:41.094Z,98306.00
2023-04-19T05:37:10.907Z,98311.00
2023-04-19T05:39:37.268Z,98298.00
2023-04-19T05:42:03.737Z,98294.00
2023-04-19T05:44:30.380Z,98297.00
2023-04-19T05:46:56.908Z,98297.00
2023-04-19T05:49:43.243Z,98298.00
2023-04-19T05:52:31.715Z,98298.00
2023-04-19T05:54:59.448Z,98289.00
2023-04-19T05:57:26.672Z,98302.00
2023-04-19T05:59:53.189Z,98295.00
2023-04-19T06:02:24.055Z,98292.00
2023-04-19T06:04:50.553Z,98295.00
2023-04-19T06:07:30.235Z,98306.00
2023-04-19T06:09:59.298Z,98306.00
2023-04-19T06:12:26.316Z,98289.00
2023-04-19T06:14:54.448Z,98293.00
2023-04-19T06:17:24.147Z,98292.00
2023-04-19T06:19:54.846Z,98298.00
2023-04-19T06:22:21.414Z,98307.00
2023-04-19T06:24:47.922Z,98298.00
2023-04-19T06:27:16.018Z,98292.00
2023-04-19T06:29:42.580Z,98287.00
2023-04-19T06:32:09.393Z,98297.00
2023-04-19T06:34:35.544Z,98282.00
2023-04-19T06:37:01.967Z,98290.00
2023-04-19T06:39:28.397Z,98284.00
2023-04-19T06:41:54.849Z,98289.00
2023-04-19T06:44:21.924Z,98293.00
2023-04-19T06:46:48.166Z,98295.00
2023-04-19T06:49:14.886Z,98274.00
2023-04-19T06:51:41.410Z,98284.00
2023-04-19T06:54:07.733Z,98293.00
2023-04-19T06:56:46.821Z,98290.00
2023-04-19T06:59:19.694Z,98289.00
2023-04-19T07:01:47.300Z,98278.00
2023-04-19T07:04:14.187Z,98274.00
2023-04-19T07:06:40.888Z,98271.00
2023-04-19T07:09:07.938Z,98269.00
2023-04-19T07:11:34.662Z,98270.00
2023-04-19T07:14:01.304Z,98267.00
2023-04-19T07:16:28.415Z,98259.00
2023-04-19T07:18:54.677Z,98275.00
2023-04-19T07:21:21.110Z,98262.00
2023-04-19T07:23:47.462Z,98270.00
2023-04-19T07:26:14.233Z,98267.00
2023-04-19T07:28:40.642Z,98257.00
2023-04-19T07:31:07.032Z,98248.00
2023-04-19T07:33:33.719Z,98260.00
2023-04-19T07:36:00.164Z,98259.00
2023-04-19T07:38:26.585Z,98256.00
2023-04-19T07:40:52.711Z,98257.00
2023-04-19T07:43:19.032Z,98242.00
2023-04-19T07:45:45.514Z,98261.00
2023-04-19T07:48:14.478Z,98238.00
2023-04-19T07:50:40.651Z,98239.00
2023-04-19T07:53:07.063Z,98231.00
2023-04-19T07:55:33.575Z,98235.00
2023-04-19T07:58:02.281Z,98234.00
2023-04-19T08:00:34.262Z,98236.00
2023-04-19T08:03:00.915Z,98242.00
2023-04-19T08:05:27.685Z,98250.00
2023-04-19T08:07:54.071Z,98234.00
2023-04-19T08:10:22.256Z,98253.00
2023-04-19T08:13:03.736Z,98257.00
2023-04-19T08:18:06.542Z,98252.00
2023-04-19T08:20:32.926Z,98255.00
2023-04-19T08:23:04.643Z,98242.00
2023-04-19T08:25:37.451Z,98251.00
2023-04-19T08:28:04.502Z,98257.00
2023-04-19T08:30:31.856Z,98257.00
2023-04-19T08:32:58.149Z,98250.00
2023-04-19T08:35:24.862Z,98251.00
2023-04-19T08:37:52.388Z,98244.00
2023-04-19T08:40:18.794Z,98236.00
2023-04-19T08:42:45.186Z,98232.00
2023-04-19T08:45:27.933Z,98241.00
2023-04-19T08:48:01.411Z,98245.00
2023-04-19T08:50:36.106Z,98246.00
2023-04-19T08:56:03.447Z,98239.00
2023-04-19T09:01:05.025Z,98237.00
2023-04-19T09:03:36.393Z,98226.00
2023-04-19T09:06:11.437Z,98234.00
2023-04-19T09:08:40.333Z,98220.00
2023-04-19T09:11:09.802Z,98242.00
2023-04-19T09:13:37.603Z,98229.00
2023-04-19T09:16:05.154Z,98221.00
2023-04-19T09:18:33.235Z,98220.00
2023-04-19T09:21:02.069Z,98225.00
2023-04-19T09:23:28.383Z,98209.00
2023-04-19T09:26:22.235Z,98212.00
2023-04-19T09:28:58.845Z,98209.00
2023-04-19T09:34:11.232Z,98206.00
2023-04-19T09:36:37.458Z,98195.00
2023-04-19T09:39:03.807Z,98188.00
2023-04-19T09:41:32.852Z,98192.00
2023-04-19T09:46:52.501Z,98196.00
2023-04-19T09:49:37.432Z,98201.00
2023-04-19T09:52:13.070Z,98190.00
2023-04-19T09:54:40.950Z,98186.00
2023-04-19T09:57:08.128Z,98196.00
2023-04-19T09:59:34.417Z,98184.00
2023-04-19T10:02:02.278Z,98183.00
2023-04-19T10:04:44.147Z,98183.00
2023-04-19T10:09:53.502Z,98188.00
2023-04-19T10:12:46.253Z,98192.00
2023-04-19T10:15:14.314Z,98185.00
2023-04-19T10:17:41.623Z,98183.00
2023-04-19T10:20:15.513Z,98173.00
2023-04-19T10:22:42.104Z,98182.00
2023-04-19T10:25:13.564Z,98198.00
2023-04-19T10:27:48.484Z,98185.00
2023-04-19T10:30:27.815Z,98186.00
2023-04-19T10:32:59.556Z,98179.00
2023-04-19T10:35:39.966Z,98174.00
2023-04-19T10:38:12.679Z,98184.00
2023-04-19T10:40:55.213Z,98182.00
2023-04-19T10:43:29.575Z,98185.00
2023-04-19T10:46:06.638Z,98178.00
2023-04-19T10:48:53.223Z,98187.00
2023-04-19T10:51:28.966Z,98198.00
2023-04-19T10:54:01.231Z,98181.00
2023-04-19T10:56:33.582Z,98182.00
2023-04-19T10:59:10.705Z,98170.00
2023-04-19T11:01:45.029Z,98184.00
2023-04-19T11:04:13.109Z,98172.00
2023-04-19T11:06:54.673Z,98161.00
2023-04-19T11:09:35.561Z,98175.00
2023-04-19T11:12:16.983Z,98141.00
2023-04-19T11:15:04.639Z,98166.00
2023-04-19T11:17:31.985Z,98152.00
2023-04-19T11:20:06.486Z,98148.00
2023-04-19T11:22:46.733Z,98150.00
2023-04-19T11:25:21.270Z,98156.00
2023-04-19T11:27:54.101Z,98153.00
2023-04-19T11:30:28.403Z,98148.00
2023-04-19T11:32:57.977Z,98135.00
2023-04-19T11:35:27.827Z,98125.00
2023-04-19T11:37:56.259Z,98133.00
2023-04-19T11:40:25.827Z,98125.00
2023-04-19T11:43:01.525Z,98125.00
2023-04-19T11:45:33.909Z,98117.00
2023-04-19T11:48:05.470Z,98116.00
2023-04-19T11:50:42.480Z,98112.00
2023-04-19T11:53:20.833Z,98109.00
2023-04-19T11:55:51.811Z,98112.00
2023-04-19T11:58:44.811Z,98105.00
2023-04-19T12:01:23.913Z,98115.00
2023-04-19T12:03:53.565Z,98101.00
2023-04-19T12:06:28.632Z,98105.00
2023-04-19T12:08:56.131Z,98100.00
2023-04-19T12:11:25.525Z,98097.00
2023-04-19T12:14:15.072Z,98105.00
2023-04-19T12:16:44.191Z,98089.00
2023-04-19T12:19:19.878Z,98082.00
2023-04-19T12:21:46.984Z,98096.00
2023-04-19T12:24:16.627Z,98095.00
2023-04-19T12:26:55.980Z,98100.00
2023-04-19T12:29:22.687Z,98085.00
2023-04-19T12:31:49.183Z,98077.00
2023-04-19T12:34:15.457Z,98062.00
2023-04-19T12:36:41.887Z,98073.00
2023-04-19T12:39:08.392Z,98068.00
2023-04-19T12:41:34.600Z,98084.00
2023-04-19T12:44:01.111Z,98074.00
2023-04-19T12:46:27.532Z,98066.00
2023-04-19T12:48:53.756Z,98058.00
2023-04-19T12:51:19.908Z,98074.00
2023-04-19T12:53:50.137Z,98073.00
2023-04-19T12:56:17.879Z,98074.00
2023-04-19T12:58:44.042Z,98068.00
2023-04-19T13:01:10.532Z,98067.00
2023-04-19T13:03:37.161Z,98059.00
2023-04-19T13:06:04.063Z,98069.00
2023-04-19T13:08:43.794Z,98074.00
2023-04-19T13:11:11.944Z,98067.00
2023-04-19T13:13:38.408Z,98067.00
2023-04-19T13:16:07.234Z,98064.00
2023-04-19T13:18:33.649Z,98065.00
2023-04-19T13:21:00.096Z,98052.00
2023-04-19T13:23:26.325Z,98048.00
2023-04-19T13:25:52.526Z,98047.00
2023-04-19T13:28:19.063Z,98045.00
2023-04-19T13:30:45.291Z,98046.00
2023-04-19T13:33:12.899Z,98033.00
2023-04-19T13:35:39.126Z,98035.00
2023-04-19T13:38:05.411Z,98017.00
2023-04-19T13:40:31.714Z,98011.00
2023-04-19T13:42:58.010Z,98048.00
2023-04-19T13:45:24.237Z,98014.00
2023-04-19T13:47:50.567Z,98025.00
2023-04-19T13:50:16.783Z,98018.00
2023-04-19T13:52:43.253Z,97995.00
2023-04-19T13:55:09.855Z,98018.00
2023-04-19T13:57:37.951Z,98005.00
2023-04-19T14:00:05.212Z,98005.00
2023-04-19T14:02:34.083Z,98002.00
2023-04-19T14:05:00.660Z,97994.00
2023-04-19T14:07:27.161Z,98006.00
2023-04-19T14:09:53.295Z,98010.00
2023-04-19T14:12:19.851Z,97993.00
2023-04-19T14:14:48.836Z,97998.00
2023-04-19T14:17:15.498Z,97996.00
2023-04-19T14:19:41.694Z,98002.00
2023-04-19T14:22:07.892Z,97986.00
2023-04-19T14:24:34.342Z,97975.00
2023-04-19T14:27:10.265Z,97995.00
2023-04-19T14:29:37.787Z,97974.00
2023-04-19T14:32:16.991Z,97977.00
2023-04-19T14:34:50.886Z,97976.00
2023-04-19T14:37:18.299Z,97984.00
2023-04-19T14:39:46.003Z,97982.00
2023-04-19T14:42:12.670Z,97977.00
2023-04-19T14:44:40.143Z,97986.00
2023-04-19T14:47:06.710Z,97985.00
2023-04-19T14:49:32.914Z,97981.00
2023-04-19T14:51:59.449Z,97961.00
2023-04-19T14:54:25.861Z,97980.00
2023-04-19T14:56:53.179Z,97948.00
2023-04-19T14:59:19.642Z,97955.00
2023-04-19T15:01:45.907Z,97959.00
2023-04-19T15:04:12.126Z,97958.00
2023-04-19T15:06:38.677Z,97964.00
2023-04-19T15:09:04.974Z,97961.00
2023-04-19T15:11:31.380Z,97957.00
2023-04-19T15:13:57.818Z,97955.00
2023-04-19T15:16:23.947Z,97953.00
2023-04-19T15:18:51.584Z,97952.00
2023-04-19T15:21:24.386Z,97943.00
2023-04-19T15:23:51.224Z,97960.00
2023-04-19T15:26:17.369Z,97958.00
2023-04-19T15:28:43.792Z,97963.00
2023-04-19T15:31:10.384Z,97950.00
2023-04-19T15:33:39.665Z,97955.00
2023-04-19T15:36:06.118Z,97947.00
2023-04-19T15:38:34.964Z,97944.00
2023-04-19T15:41:01.296Z,97952.00
2023-04-19T15:43:27.939Z,97969.00
2023-04-19T15:45:54.416Z,97963.00
2023-04-19T15:48:21.434Z,97951.00
2023-04-19T15:50:47.973Z,97955.00
2023-04-19T15:53:15.403Z,97956.00
2023-04-19T15:55:42.057Z,97945.00
2023-04-19T15:58:08.291Z,97946.00
2023-04-19T16:00:34.644Z,97959.00
2023-04-19T16:03:01.198Z,97950.00
2023-04-19T16:05:27.678Z,97940.00
2023-04-19T16:08:05.869Z,97946.00
2023-04-19T16:10:32.396Z,97931.00
2023-04-19T16:12:59.859Z,97947.00
2023-04-19T16:15:27.071Z,97944.00
2023-04-19T16:17:53.284Z,97948.00
2023-04-19T16:20:19.881Z,97937.00
2023-04-19T16:22:47.063Z,97937.00
2023-04-19T16:25:15.444Z,97934.00
2023-04-19T16:27:44.113Z,97934.00
2023-04-19T16:30:12.338Z,97923.00
2023-04-19T16:32:39.800Z,97942.00
2023-04-19T16:35:07.344Z,97951.00
2023-04-19T16:37:34.618Z,97955.00
2023-04-19T16:40:09.679Z,97938.00
2023-04-19T16:42:37.732Z,97944.00
2023-04-19T16:45:05.965Z,97943.00
2023-04-19T16:47:33.080Z,97944.00
2023-04-19T16:50:00.298Z,97948.00
2023-04-19T16:52:29.113Z,97957.00
2023-04-19T16:54:55.501Z,97933.00
2023-04-19T16:57:23.211Z,97946.00
2023-04-19T16:59:50.175Z,97945.00
2023-04-19T17:02:17.017Z,97948.00
2023-04-19T17:04:43.472Z,97935.00
2023-04-19T17:07:10.798Z,97941.00
2023-04-19T17:09:37.090Z,97942.00
2023-04-19T17:12:04.201Z,97943.00
2023-04-19T17:14:32.667Z,97945.00
2023-04-19T17:16:59.186Z,97940.00
2023-04-19T17:19:26.154Z,97934.00
2023-04-19T17:21:52.732Z,97935.00
2023-04-19T17:24:18.938Z,97938.00
2023-04-19T17:26:45.272Z,97926.00
2023-04-19T17:29:11.545Z,97930.00
2023-04-19T17:31:37.934Z,97934.00
2023-04-19T17:34:04.114Z,97928.00
2023-04-19T17:36:31.127Z,97940.00
2023-04-19T17:38:57.255Z,97935.00
2023-04-19T17:41:23.669Z,97944.00
2023-04-19T17:43:50.163Z,97937.00
2023-04-19T17:46:18.738Z,97937.00
2023-04-19T17:48:44.986Z,97936.00
2023-04-19T17:51:11.258Z,97939.00
2023-04-19T17:53:37.482Z,97943.00
2023-04-19T17:56:04.815Z,97941.00
2023-04-19T17:58:31.315Z,97944.00
2023-04-19T18:00:57.532Z,97934.00
2023-04-19T18:03:24.044Z,97960.00
2023-04-19T18:05:50.227Z,97950.00
2023-04-19T18:08:16.388Z,97946.00
2023-04-19T18:10:42.495Z,97951.00
2023-04-19T18:13:08.666Z,97941.00
2023-04-19T18:15:35.289Z,97944.00
2023-04-19T18:18:01.579Z,97941.00
2023-04-19T18:20:27.780Z,97951.00
2023-04-19T18:22:54.160Z,97954.00
2023-04-19T18:25:20.308Z,97953.00
2023-04-19T18:27:47.539Z,97947.00
2023-04-19T18:30:13.804Z,97952.00
2023-04-19T18:32:40.114Z,97967.00
2023-04-19T18:35:09.214Z,97957.00
2023-04-19T18:37:35.476Z,97964.00
2023-04-19T18:40:06.133Z,97959.00
2023-04-19T18:42:32.847Z,97974.00
2023-04-19T18:44:59.263Z,97966.00
2023-04-19T18:47:26.202Z,97972.00
2023-04-19T18:50:04.464Z,97974.00
2023-04-19T18:52:31.593Z,97970.00
2023-04-19T18:54:58.036Z,97969.00
2023-04-19T18:57:27.614Z,97987.00
2023-04-19T18:59:56.335Z,97973.00
2023-04-19T19:02:22.931Z,97979.00
2023-04-19T19:04:56.751Z,97982.00
2023-04-19T19:07:36.435Z,97983.00
2023-04-19T19:10:18.158Z,97986.00
2023-04-19T19:12:45.449Z,97988.00
2023-04-19T19:15:12.664Z,98002.00
2023-04-19T19:17:38.958Z,97997.00
2023-04-19T19:20:06.394Z,97991.00
2023-04-19T19:22:32.974Z,97991.00
2023-04-19T19:24:59.135Z,97995.00
2023-04-19T19:27:25.303Z,97999.00
2023-04-19T19:29:51.532Z,97994.00
2023-04-19T19:32:18.735Z,97994.00
2023-04-19T19:34:54.790Z,97996.00
2023-04-19T19:37:22.545Z,97992.00
2023-04-19T19:39:48.674Z,97989.00
2023-04-19T19:42:16.847Z,97990.00
2023-04-19T19:44:43.478Z,97997.00
2023-04-19T19:47:11.003Z,97997.00
2023-04-19T19:52:07.474Z,97991.00
2023-04-19T19:54:33.727Z,97992.00
2023-04-19T19:57:48.396Z,97990.00
2023-04-19T19:59:54.518Z,97984.00
2023-04-19T20:02:22.239Z,97993.00
2023-04-19T20:04:49.207Z,97986.00
2023-04-19T20:09:45.063Z,97998.00
2023-04-19T20:12:12.592Z,97980.00
2023-04-19T20:14:39.410Z,97993.00
2023-04-19T20:17:06.059Z,97993.00
2023-04-19T20:19:32.564Z,97988.00
2023-04-19T20:21:59.694Z,97991.00
2023-04-19T20:24:25.934Z,97989.00
2023-04-19T20:26:52.338Z,97984.00
2023-04-19T20:29:18.823Z,97986.00
2023-04-19T20:31:45.366Z,97986.00
2023-04-19T20:34:11.585Z,97979.00
2023-04-19T20:36:39.500Z,97987.00
2023-04-19T20:39:08.866Z,97980.00
2023-04-19T20:41:35.435Z,97983.00
2023-04-19T20:44:01.623Z,97981.00
2023-04-19T20:46:27.990Z,97979.00
2023-04-19T20:48:54.278Z,97979.00
2023-04-19T20:51:20.430Z,97978.00
2023-04-19T20:53:46.853Z,97972.00
2023-04-19T20:56:13.086Z,97972.00
2023-04-19T20:58:40.054Z,97965.00
2023-04-19T21:01:06.513Z,97967.00
2023-04-19T21:03:32.940Z,97963.00
2023-04-19T21:05:59.528Z,97965.00
2023-04-19T21:08:25.687Z,97954.00
2023-04-19T21:10:52.154Z,97956.00
2023-04-19T21:13:18.364Z,97946.00
2023-04-19T21:15:44.840Z,97961.00
2023-04-19T21:18:11.023Z,97961.00
2023-04-19T21:20:37.319Z,97934.00
2023-04-19T21:23:03.894Z,97942.00
2023-04-19T21:25:30.079Z,97939.00
2023-04-19T21:27:56.389Z,97944.00
2023-04-19T21:30:23.231Z,97951.00
2023-04-19T21:32:49.748Z,97952.00
2023-04-19T21:35:16.016Z,97951.00
2023-04-19T21:37:42.448Z,97952.00
2023-04-19T21:40:08.995Z,97944.00
2023-04-19T21:42:35.649Z,97923.00
2023-04-19T21:45:02.127Z,97934.00
2023-04-19T21:47:28.355Z,97931.00
2023-04-19T21:49:54.891Z,97929.00
2023-04-19T21:52:21.353Z,97926.00
2023-04-19T21:54:47.945Z,97932.00
2023-04-19T21:57:14.313Z,97927.00
2023-04-19T21:59:40.700Z,97938.00
2023-04-19T22:02:07.862Z,97909.00
2023-04-19T22:04:35.862Z,97921.00
2023-04-19T22:07:02.376Z,97914.00
2023-04-19T22:09:29.847Z,97925.00
2023-04-19T22:11:55.972Z,97928.00
2023-04-19T22:14:24.819Z,97904.00
2023-04-19T22:16:51.471Z,97917.00
2023-04-19T22:19:18.247Z,97910.00
2023-04-19T22:21:46.270Z,97919.00
2023-04-19T22:24:12.435Z,97900.00
2023-04-19T22:26:38.600Z,97896.00
2023-04-19T22:29:05.134Z,97899.00
2023-04-19T22:31:31.297Z,97893.00
2023-04-19T22:33:57.458Z,97897.00
2023-04-19T22:36:23.635Z,97884.00
2023-04-19T22:38:50.110Z,97897.00
2023-04-19T22:41:16.288Z,97882.00
2023-04-19T22:43:42.659Z,97885.00
2023-04-19T22:46:09.109Z,97874.00
2023-04-19T22:48:35.849Z,97883.00
2023-04-19T22:51:02.278Z,97873.00
2023-04-19T22:53:28.750Z,97876.00
2023-04-19T22:55:55.117Z,97883.00
2023-04-19T22:58:21.911Z,97866.00
2023-04-19T23:00:49.563Z,97866.00
2023-04-19T23:03:16.184Z,97858.00
2023-04-19T23:05:42.652Z,97852.00
2023-04-19T23:08:09.025Z,97854.00
2023-04-19T23:10:37.332Z,97839.00
2023-04-19T23:13:05.152Z,97837.00
2023-04-19T23:15:32.324Z,97845.00
2023-04-19T23:17:59.036Z,97845.00
2023-04-19T23:20:25.482Z,97835.00
2023-04-19T23:22:51.615Z,97848.00
2023-04-19T23:25:18.045Z,97833.00
2023-04-19T23:27:44.760Z,97832.00
2023-04-19T23:30:11.248Z,97820.00
2023-04-19T23:32:37.713Z,97824.00
2023-04-19T23:35:04.279Z,97828.00
2023-04-19T23:37:30.673Z,97812.00
2023-04-19T23:39:56.764Z,97821.00
2023-04-19T23:42:22.958Z,97814.00
2023-04-19T23:44:53.387Z,97821.00
2023-04-19T23:47:20.825Z,97812.00
2023-04-19T23:49:47.352Z,97799.00
2023-04-19T23:52:13.772Z,97790.00
2023-04-19T23:54:40.206Z,97795.00
2023-04-19T23:57:06.539Z,97797.00
2023-04-19T23:59:32.736Z,97790.00
